Time;durP1;ratioP1;P1;durP2;ratioP2;P2;SDS_P1;SDS_P2;PMS_P1;PMS_P2;Temp;Humidity;BMP_temperature;BMP_pressure;BME280_temperature;BME280_humidity;BME280_pressure;Samples;Min_cycle;Max_cycle;Signal;HPM_P1;HPM_P2
2021/10/29 00:01:00;;;;;;;33.87;22.83;;;10.30;99.90;;;;;;5070199;28;20457;-50
2021/10/29 00:03:29;;;;;;;29.10;21.77;;;10.30;99.90;;;;;;5071532;28;20434;-50
2021/10/29 00:05:58;;;;;;;26.90;21.67;;;10.20;99.90;;;;;;5071319;28;20455;-50
2021/10/29 00:08:25;;;;;;;27.67;20.20;;;10.70;99.90;;;;;;5071145;28;20465;-51
2021/10/29 00:10:52;;;;;;;28.23;22.90;;;10.30;99.90;;;;;;5071453;28;20513;-52
2021/10/29 00:13:19;;;;;;;29.90;23.20;;;10.70;99.90;;;;;;5071660;28;20438;-52
2021/10/29 00:15:45;;;;;;;24.80;22.20;;;10.20;99.90;;;;;;5071632;28;20449;-51
2021/10/29 00:18:12;;;;;;;30.43;22.87;;;10.20;99.90;;;;;;5069770;28;20881;-51
2021/10/29 00:20:39;;;;;;;27.37;22.50;;;10.50;99.90;;;;;;5071354;28;20418;-50
2021/10/29 00:23:07;;;;;;;28.13;23.60;;;10.10;99.90;;;;;;5075156;28;20516;-50
2021/10/29 00:25:33;;;;;;;29.63;24.23;;;10.10;99.90;;;;;;5075431;28;20548;-51
2021/10/29 00:28:00;;;;;;;29.87;23.60;;;10.10;99.90;;;;;;5073736;28;20442;-52
2021/10/29 00:30:27;;;;;;;29.17;23.17;;;9.90;99.90;;;;;;5073850;28;21088;-51
2021/10/29 00:32:59;;;;;;;29.77;21.33;;;10.00;99.90;;;;;;5075144;28;20792;-50
2021/10/29 00:35:29;;;;;;;30.57;24.27;;;10.50;99.90;;;;;;5075478;28;20552;-52
2021/10/29 00:37:56;;;;;;;29.70;24.90;;;10.00;99.90;;;;;;5074941;28;20453;-52
2021/10/29 00:40:27;;;;;;;35.10;24.40;;;10.00;99.90;;;;;;5075148;28;20434;-51
2021/10/29 00:42:54;;;;;;;26.97;21.63;;;10.00;99.90;;;;;;5075167;28;20429;-51
2021/10/29 00:45:21;;;;;;;28.97;23.90;;;10.30;99.90;;;;;;5073714;28;20469;-51
2021/10/29 00:47:51;;;;;;;31.00;24.40;;;10.30;99.90;;;;;;5074729;28;20473;-51
2021/10/29 00:50:17;;;;;;;30.30;23.27;;;10.00;99.90;;;;;;5074960;28;20572;-51
2021/10/29 00:52:44;;;;;;;32.70;25.80;;;9.80;99.90;;;;;;5074930;28;20468;-50
2021/10/29 00:55:14;;;;;;;27.77;23.87;;;10.30;99.90;;;;;;5073465;28;20462;-51
2021/10/29 00:57:45;;;;;;;31.33;24.70;;;10.20;99.90;;;;;;5074561;28;20453;-51
2021/10/29 01:00:15;;;;;;;29.20;24.03;;;9.60;99.90;;;;;;5074769;28;20456;-50
2021/10/29 01:02:42;;;;;;;29.87;25.00;;;10.00;99.90;;;;;;5074693;28;20458;-52
2021/10/29 01:05:09;;;;;;;28.53;23.60;;;10.20;99.90;;;;;;5074563;28;20480;-52
2021/10/29 01:07:38;;;;;;;32.00;24.43;;;10.20;99.90;;;;;;5073465;28;20511;-51
2021/10/29 01:10:07;;;;;;;36.03;23.77;;;9.80;99.90;;;;;;5074364;28;20977;-51
2021/10/29 01:12:33;;;;;;;32.83;24.20;;;9.80;99.90;;;;;;5074535;28;20442;-50
2021/10/29 01:15:03;;;;;;;31.50;24.63;;;9.70;99.90;;;;;;5072960;28;20523;-51
2021/10/29 01:17:29;;;;;;;32.20;24.40;;;10.20;99.90;;;;;;5074462;28;20461;-51
2021/10/29 01:19:58;;;;;;;33.43;25.70;;;9.90;99.90;;;;;;5074059;28;20458;-51
2021/10/29 01:22:27;;;;;;;30.20;25.77;;;9.40;99.90;;;;;;5073268;28;20452;-51
2021/10/29 01:24:54;;;;;;;28.90;25.17;;;10.00;99.90;;;;;;5074360;28;20458;-52
2021/10/29 01:27:24;;;;;;;31.00;25.87;;;9.70;99.90;;;;;;5072787;28;20870;-51
2021/10/29 01:29:52;;;;;;;30.83;25.47;;;10.00;99.90;;;;;;5072483;28;20469;-52
2021/10/29 01:32:22;;;;;;;32.67;26.23;;;9.70;99.90;;;;;;5074475;28;20439;-51
2021/10/29 01:34:49;;;;;;;36.10;26.50;;;9.40;99.90;;;;;;5073362;28;20464;-51
2021/10/29 01:37:16;;;;;;;35.60;26.80;;;9.60;99.90;;;;;;5072884;28;20442;-51
2021/10/29 01:39:45;;;;;;;33.73;26.20;;;9.50;99.90;;;;;;5073658;28;20517;-50
2021/10/29 01:42:12;;;;;;;35.30;26.97;;;9.10;99.90;;;;;;5074078;28;20932;-51
2021/10/29 01:44:40;;;;;;;32.20;25.37;;;9.10;99.90;;;;;;5073823;28;20836;-50
2021/10/29 01:47:09;;;;;;;34.50;26.40;;;9.90;99.90;;;;;;5072534;28;20477;-51
2021/10/29 01:49:38;;;;;;;33.97;25.70;;;9.20;99.90;;;;;;5072101;28;20468;-51
2021/10/29 01:52:05;;;;;;;34.67;26.10;;;9.60;99.90;;;;;;5072541;28;20480;-52
2021/10/29 01:54:34;;;;;;;32.53;25.83;;;9.50;99.90;;;;;;5073682;28;20453;-51
2021/10/29 01:57:02;;;;;;;34.83;25.93;;;9.60;99.90;;;;;;5073674;28;20513;-51
2021/10/29 01:59:29;;;;;;;38.10;27.37;;;9.40;99.90;;;;;;5073395;28;20989;-51
2021/10/29 02:01:56;;;;;;;31.20;24.87;;;9.20;99.90;;;;;;5073936;28;20771;-51
2021/10/29 02:04:23;;;;;;;34.37;25.60;;;9.10;99.90;;;;;;5073633;28;20469;-52
2021/10/29 02:06:49;;;;;;;32.20;25.70;;;9.70;99.90;;;;;;5072636;28;20541;-51
2021/10/29 02:09:19;;;;;;;34.77;24.80;;;9.80;99.90;;;;;;5072960;28;20449;-50
2021/10/29 02:11:46;;;;;;;30.30;24.90;;;9.60;99.90;;;;;;5072069;28;20541;-51
2021/10/29 02:14:14;;;;;;;36.30;26.87;;;9.20;99.90;;;;;;5073151;28;20434;-51
2021/10/29 02:16:47;;;;;;;32.60;25.20;;;9.00;99.90;;;;;;5073368;28;20473;-51
2021/10/29 02:19:17;;;;;;;37.47;27.93;;;9.30;99.90;;;;;;5071629;28;20461;-52
2021/10/29 02:21:44;;;;;;;32.60;27.03;;;9.70;99.90;;;;;;5073229;28;20421;-51
2021/10/29 02:24:11;;;;;;;33.80;25.43;;;8.90;99.90;;;;;;5071772;28;20524;-51
2021/10/29 02:26:38;;;;;;;33.57;27.23;;;9.80;99.90;;;;;;5071781;28;20519;-51
2021/10/29 02:29:05;;;;;;;34.00;25.43;;;9.00;99.90;;;;;;5072672;28;20441;-51
2021/10/29 02:31:33;;;;;;;35.60;27.77;;;9.20;99.90;;;;;;5071677;28;20546;-51
2021/10/29 02:34:00;;;;;;;33.00;25.97;;;9.60;99.90;;;;;;5072833;28;20430;-51
2021/10/29 02:36:29;;;;;;;36.47;27.20;;;9.20;99.90;;;;;;5072997;28;20999;-51
2021/10/29 02:38:56;;;;;;;33.67;26.20;;;9.00;99.90;;;;;;5072458;28;20870;-51
2021/10/29 02:41:24;;;;;;;37.90;25.97;;;9.10;99.90;;;;;;5072833;28;20517;-50
2021/10/29 02:43:50;;;;;;;35.40;28.53;;;9.30;99.90;;;;;;5072785;28;20464;-50
2021/10/29 02:46:17;;;;;;;38.07;25.73;;;8.80;99.90;;;;;;5070247;28;20500;-51
2021/10/29 02:48:45;;;;;;;41.00;28.67;;;9.40;99.90;;;;;;5072320;28;20978;-51
2021/10/29 02:51:12;;;;;;;33.10;25.83;;;9.40;99.90;;;;;;5072650;28;20588;-51
2021/10/29 02:53:40;;;;;;;34.30;27.40;;;8.70;99.90;;;;;;5072592;28;20521;-51
2021/10/29 02:56:08;;;;;;;35.07;26.77;;;8.70;99.90;;;;;;5072325;28;20465;-51
2021/10/29 02:58:34;;;;;;;39.90;28.60;;;9.30;99.90;;;;;;5071934;28;20866;-50
2021/10/29 03:01:02;;;;;;;38.87;27.33;;;9.00;99.90;;;;;;5072301;28;20512;-50
2021/10/29 03:03:29;;;;;;;42.23;29.10;;;8.90;99.90;;;;;;5072382;28;20997;-51
2021/10/29 03:05:58;;;;;;;30.43;26.23;;;9.10;99.90;;;;;;5070923;28;20854;-51
2021/10/29 03:08:25;;;;;;;35.33;27.57;;;8.90;99.90;;;;;;5071896;28;20500;-52
2021/10/29 03:10:52;;;;;;;35.07;27.27;;;8.90;99.90;;;;;;5072033;28;20465;-51
2021/10/29 03:13:22;;;;;;;36.43;28.00;;;9.40;99.90;;;;;;5071995;28;20944;-51
2021/10/29 03:15:49;;;;;;;37.10;28.83;;;9.10;99.90;;;;;;5071852;28;20428;-51
2021/10/29 03:18:17;;;;;;;36.53;28.00;;;8.90;99.90;;;;;;5071596;28;20491;-50
2021/10/29 03:20:44;;;;;;;32.87;26.67;;;9.30;99.90;;;;;;5070902;28;20548;-50
2021/10/29 03:23:14;;;;;;;35.57;27.80;;;8.90;99.90;;;;;;5072039;28;20472;-51
2021/10/29 03:25:41;;;;;;;40.60;28.50;;;9.10;99.90;;;;;;5070727;28;20532;-51
2021/10/29 03:28:08;;;;;;;37.60;28.83;;;8.50;99.90;;;;;;5071591;28;20474;-51
2021/10/29 03:30:35;;;;;;;37.10;29.37;;;8.90;99.90;;;;;;5070399;28;20477;-51
2021/10/29 03:33:02;;;;;;;38.10;28.60;;;8.80;99.90;;;;;;5071691;28;20453;-51
2021/10/29 03:35:28;;;;;;;45.03;29.57;;;8.30;99.90;;;;;;5070237;28;21059;-52
2021/10/29 03:38:10;;;;;;;42.43;30.90;;;9.10;99.90;;;;;;5071498;28;20423;-51
2021/10/29 03:40:46;;;;;;;41.50;29.87;;;8.90;99.90;;;;;;5071714;28;20549;-52
2021/10/29 03:43:18;;;;;;;38.10;28.37;;;8.70;99.90;;;;;;5071801;28;20438;-51
2021/10/29 03:45:49;;;;;;;35.40;27.77;;;8.70;99.90;;;;;;5071440;28;20454;-51
2021/10/29 03:48:23;;;;;;;34.53;27.73;;;8.40;99.90;;;;;;5069835;28;20461;-51
2021/10/29 03:51:02;;;;;;;38.23;27.20;;;9.10;99.90;;;;;;5071415;28;20477;-51
2021/10/29 03:53:32;;;;;;;40.13;28.47;;;9.00;99.90;;;;;;5071657;28;20528;-51
2021/10/29 03:56:01;;;;;;;38.07;28.67;;;9.00;99.90;;;;;;5069819;28;20470;-51
2021/10/29 03:58:27;;;;;;;39.17;27.67;;;8.40;99.90;;;;;;5071178;28;20803;-52
2021/10/29 04:00:54;;;;;;;36.70;29.67;;;8.70;99.90;;;;;;5071539;28;21008;-51
2021/10/29 04:03:21;;;;;;;37.80;28.63;;;8.40;99.90;;;;;;5070155;28;20441;-52
2021/10/29 04:05:48;;;;;;;35.33;28.20;;;8.60;99.90;;;;;;5071252;28;20997;-51
2021/10/29 04:08:16;;;;;;;38.47;29.30;;;8.60;99.90;;;;;;5071384;28;20450;-52
2021/10/29 04:10:44;;;;;;;37.03;29.63;;;8.40;99.90;;;;;;5071459;28;20465;-51
2021/10/29 04:13:13;;;;;;;37.33;28.30;;;8.10;99.90;;;;;;5070981;28;20441;-52
2021/10/29 04:15:41;;;;;;;39.80;28.00;;;8.10;99.90;;;;;;5071444;28;20464;-52
2021/10/29 04:18:10;;;;;;;42.97;27.90;;;8.20;99.90;;;;;;5071249;28;20424;-52
2021/10/29 04:20:37;;;;;;;39.73;28.47;;;8.50;99.90;;;;;;5071105;28;20468;-51
2021/10/29 04:23:04;;;;;;;41.37;31.33;;;8.50;99.90;;;;;;5071155;28;20487;-51
2021/10/29 04:25:31;;;;;;;44.07;31.83;;;8.50;99.90;;;;;;5069836;28;20497;-52
2021/10/29 04:27:59;;;;;;;42.80;31.60;;;8.30;99.90;;;;;;5069722;28;20523;-52
2021/10/29 04:30:29;;;;;;;39.97;28.77;;;8.50;99.90;;;;;;5070979;28;20957;-51
2021/10/29 04:32:57;;;;;;;40.23;29.20;;;8.60;99.90;;;;;;5071033;28;20858;-51
2021/10/29 04:35:24;;;;;;;35.03;28.20;;;8.30;99.90;;;;;;5070913;28;20454;-52
2021/10/29 04:37:51;;;;;;;46.60;28.67;;;8.40;99.90;;;;;;5070712;28;20516;-52
2021/10/29 04:40:18;;;;;;;40.97;29.47;;;8.00;99.90;;;;;;5070715;28;20434;-53
2021/10/29 04:42:45;;;;;;;35.67;27.70;;;8.80;99.90;;;;;;5070912;28;20531;-50
2021/10/29 04:45:15;;;;;;;34.27;28.67;;;8.30;99.90;;;;;;5070889;28;20979;-52
2021/10/29 04:47:43;;;;;;;36.30;30.50;;;8.40;99.90;;;;;;5070552;28;20436;-51
2021/10/29 04:50:11;;;;;;;34.13;26.60;;;8.40;99.90;;;;;;5071025;28;20516;-55
2021/10/29 04:52:37;;;;;;;41.43;28.83;;;8.50;99.90;;;;;;5070986;28;20528;-50
2021/10/29 04:55:05;;;;;;;35.37;27.83;;;8.60;99.90;;;;;;5069440;28;20469;-52
2021/10/29 04:57:40;;;;;;;40.70;30.37;;;8.50;99.90;;;;;;5070495;28;20474;-52
2021/10/29 05:00:08;;;;;;;35.33;28.30;;;8.30;99.90;;;;;;5070736;28;20847;-51
2021/10/29 05:02:35;;;;;;;37.40;28.50;;;8.30;99.90;;;;;;5070649;28;20452;-52
2021/10/29 05:05:05;;;;;;;35.77;28.63;;;8.20;99.90;;;;;;5070549;28;20842;-51
2021/10/29 05:07:32;;;;;;;35.53;28.53;;;8.40;99.90;;;;;;5069227;28;20545;-52
2021/10/29 05:09:59;;;;;;;37.80;28.40;;;8.40;99.90;;;;;;5073548;28;20934;-52
2021/10/29 05:12:26;;;;;;;33.93;27.17;;;8.50;99.90;;;;;;5074199;28;20469;-52
2021/10/29 05:14:54;;;;;;;38.40;29.63;;;7.90;99.90;;;;;;5074420;28;20539;-52
2021/10/29 05:17:21;;;;;;;35.90;27.83;;;7.90;99.90;;;;;;5072365;28;20519;-52
2021/10/29 05:19:47;;;;;;;40.80;27.97;;;8.30;99.90;;;;;;5073782;28;20533;-52
2021/10/29 05:22:16;;;;;;;39.73;28.40;;;8.10;99.90;;;;;;5074255;28;20521;-51
2021/10/29 05:24:43;;;;;;;36.73;27.90;;;8.60;99.90;;;;;;5073826;28;20545;-52
2021/10/29 05:27:10;;;;;;;39.63;29.10;;;8.10;99.90;;;;;;5073453;28;20853;-51
2021/10/29 05:29:36;;;;;;;43.27;31.10;;;8.00;99.90;;;;;;5073095;28;20832;-52
2021/10/29 05:32:04;;;;;;;37.03;27.60;;;8.30;99.90;;;;;;5073294;28;20552;-51
2021/10/29 05:34:30;;;;;;;36.30;28.03;;;8.30;99.90;;;;;;5072481;28;20465;-52
2021/10/29 05:36:57;;;;;;;36.60;26.90;;;8.00;99.90;;;;;;5073758;28;20435;-51
2021/10/29 05:39:25;;;;;;;39.73;28.37;;;8.10;99.90;;;;;;5072809;28;20438;-52
2021/10/29 05:41:52;;;;;;;36.50;28.53;;;8.50;99.90;;;;;;5073543;28;20435;-51
2021/10/29 05:44:20;;;;;;;43.47;30.37;;;8.50;99.90;;;;;;5073263;28;20454;-52
2021/10/29 05:46:47;;;;;;;37.30;28.23;;;7.90;99.90;;;;;;5073364;28;20540;-52
2021/10/29 05:49:15;;;;;;;35.83;26.67;;;8.20;99.90;;;;;;5070910;28;20453;-51
2021/10/29 05:51:45;;;;;;;44.43;31.37;;;8.50;99.90;;;;;;5073609;28;20511;-51
2021/10/29 05:54:24;;;;;;;41.30;29.20;;;8.00;99.90;;;;;;5072985;28;20448;-51
2021/10/29 05:56:52;;;;;;;44.93;29.10;;;7.90;99.90;;;;;;5073552;28;20859;-52
2021/10/29 05:59:21;;;;;;;36.83;27.67;;;8.10;99.90;;;;;;5073625;28;20444;-52
2021/10/29 06:01:47;;;;;;;42.53;29.73;;;7.60;99.90;;;;;;5072959;28;20567;-52
2021/10/29 06:04:14;;;;;;;35.33;27.90;;;8.40;99.90;;;;;;5072495;28;20453;-52
2021/10/29 06:06:41;;;;;;;37.20;27.93;;;8.00;99.90;;;;;;5073348;28;20446;-52
2021/10/29 06:09:08;;;;;;;40.40;29.17;;;8.30;99.90;;;;;;5072844;28;20799;-52
2021/10/29 06:11:37;;;;;;;41.27;27.27;;;8.10;99.90;;;;;;5072865;28;20554;-51
2021/10/29 06:14:05;;;;;;;39.80;29.20;;;7.90;99.90;;;;;;5073183;28;20430;-51
2021/10/29 06:16:32;;;;;;;39.50;28.67;;;8.20;99.90;;;;;;5072956;28;20844;-52
2021/10/29 06:18:59;;;;;;;43.50;29.97;;;8.10;99.90;;;;;;5072116;28;20523;-52
2021/10/29 06:21:33;;;;;;;38.90;28.20;;;8.00;99.90;;;;;;5073346;28;20473;-52
2021/10/29 06:24:00;;;;;;;39.00;28.83;;;7.90;99.90;;;;;;5072851;28;20424;-52
2021/10/29 06:26:38;;;;;;;41.43;27.70;;;8.00;99.90;;;;;;5072262;28;20485;-51
2021/10/29 06:29:06;;;;;;;36.63;28.67;;;7.90;99.90;;;;;;5072659;28;20524;-52
2021/10/29 06:31:35;;;;;;;42.67;27.67;;;8.50;99.90;;;;;;5072234;28;20999;-51
2021/10/29 06:34:02;;;;;;;42.43;27.90;;;8.40;99.90;;;;;;5071164;28;20513;-52
2021/10/29 06:36:29;;;;;;;42.90;28.13;;;8.50;99.90;;;;;;5072261;28;20436;-51
2021/10/29 06:38:57;;;;;;;37.97;27.13;;;8.20;99.90;;;;;;5071718;28;20424;-52
2021/10/29 06:41:25;;;;;;;35.07;28.20;;;8.20;99.90;;;;;;5071187;28;20445;-51
2021/10/29 06:44:03;;;;;;;37.10;27.70;;;8.30;99.90;;;;;;5072296;28;20433;-52
2021/10/29 06:46:37;;;;;;;39.97;28.43;;;8.10;99.90;;;;;;5072435;28;20462;-51
2021/10/29 06:49:10;;;;;;;37.47;27.43;;;8.00;99.90;;;;;;5071731;28;20483;-51
2021/10/29 06:51:59;;;;;;;39.97;27.37;;;8.50;99.90;;;;;;5072169;28;20469;-52
2021/10/29 07:00:15;;;;;;;36.33;27.30;;;8.70;99.90;;;;;;5029448;28;20437;-51
2021/10/29 07:41:14;;;;;;;36.40;26.70;;;8.80;99.90;;;;;;5071312;28;20428;-51
2021/10/29 07:43:46;;;;;;;33.60;25.23;;;8.90;99.90;;;;;;5069152;28;20536;-52
2021/10/29 07:46:13;;;;;;;32.77;26.10;;;8.50;99.90;;;;;;5070008;28;20539;-51
2021/10/29 07:48:40;;;;;;;35.70;26.37;;;8.60;99.90;;;;;;5068895;28;20911;-51
2021/10/29 07:51:08;;;;;;;31.13;26.00;;;8.60;99.90;;;;;;5070698;28;20461;-51
2021/10/29 07:53:36;;;;;;;38.70;26.50;;;8.60;99.90;;;;;;5070707;28;20433;-50
2021/10/29 07:56:04;;;;;;;29.80;24.90;;;8.20;99.90;;;;;;5069562;28;20507;-52
2021/10/29 07:58:35;;;;;;;33.00;25.70;;;8.70;99.90;;;;;;5069346;28;20468;-50
2021/10/29 08:01:02;;;;;;;35.20;26.50;;;8.50;99.90;;;;;;5071745;28;20442;-51
2021/10/29 08:03:30;;;;;;;31.67;23.80;;;8.80;99.90;;;;;;5071155;28;20487;-51
2021/10/29 08:05:57;;;;;;;30.60;24.60;;;9.00;99.90;;;;;;5070545;28;20951;-51
2021/10/29 08:08:25;;;;;;;29.83;23.53;;;8.90;99.90;;;;;;5069219;28;20476;-51
2021/10/29 08:10:52;;;;;;;30.07;23.47;;;9.00;99.90;;;;;;5060494;28;20969;-51
2021/10/29 08:13:20;;;;;;;31.50;23.30;;;9.20;99.90;;;;;;5064169;28;20482;-52
2021/10/29 08:15:52;;;;;;;30.60;25.53;;;9.00;99.90;;;;;;5068490;28;20987;-52
2021/10/29 08:18:19;;;;;;;34.10;25.70;;;9.40;99.90;;;;;;5065461;28;20459;-50
2021/10/29 08:20:48;;;;;;;30.90;23.90;;;9.00;99.90;;;;;;5050952;28;20429;-52
2021/10/29 08:23:15;;;;;;;33.10;25.30;;;9.00;99.90;;;;;;5051094;28;20435;-50
2021/10/29 08:25:43;;;;;;;32.73;24.07;;;9.50;99.90;;;;;;5050832;28;20449;-50
2021/10/29 08:28:10;;;;;;;32.70;24.30;;;9.60;99.90;;;;;;5052015;28;20456;-50
2021/10/29 08:30:37;;;;;;;32.20;25.73;;;9.10;99.90;;;;;;5050435;28;20500;-51
2021/10/29 08:33:06;;;;;;;29.90;24.00;;;9.60;99.90;;;;;;5050336;28;20998;-51
2021/10/29 08:35:33;;;;;;;30.40;25.10;;;9.30;99.90;;;;;;5051146;28;20864;-51
2021/10/29 08:38:00;;;;;;;32.77;26.63;;;9.20;99.90;;;;;;5050489;28;20437;-51
2021/10/29 08:40:27;;;;;;;34.40;25.37;;;9.00;99.90;;;;;;5051090;28;20565;-51
2021/10/29 08:42:55;;;;;;;31.17;24.27;;;9.10;99.90;;;;;;5051935;28;20533;-52
2021/10/29 08:45:22;;;;;;;30.30;23.17;;;9.80;99.90;;;;;;5055929;28;20474;-52
2021/10/29 08:47:49;;;;;;;33.83;23.73;;;9.40;99.90;;;;;;5052201;28;20866;-51
2021/10/29 08:50:18;;;;;;;47.73;30.77;;;9.40;99.90;;;;;;5054322;28;20426;-52
2021/10/29 08:52:47;;;;;;;34.27;26.13;;;9.50;99.90;;;;;;5053930;28;20762;-51
2021/10/29 08:55:24;;;;;;;30.50;23.83;;;9.70;99.90;;;;;;5053863;28;20501;-51
2021/10/29 08:57:51;;;;;;;34.37;25.40;;;9.70;99.90;;;;;;5054042;28;20456;-52
2021/10/29 09:00:22;;;;;;;28.80;23.10;;;10.10;99.90;;;;;;5055346;28;20551;-51
2021/10/29 09:02:58;;;;;;;32.00;24.47;;;9.80;99.90;;;;;;5055059;28;20435;-53
2021/10/29 09:05:28;;;;;;;35.20;25.10;;;9.70;99.90;;;;;;5055002;28;20978;-52
2021/10/29 09:08:11;;;;;;;32.33;25.27;;;9.80;99.90;;;;;;5052600;28;20930;-52
2021/10/29 09:10:53;;;;;;;28.60;23.40;;;9.90;99.90;;;;;;5058900;28;20520;-51
2021/10/29 09:16:43;;;;;;;28.40;24.00;;;9.90;99.90;;;;;;5072217;28;20546;-51
2021/10/29 09:31:26;;;;;;;29.97;25.00;;;10.40;99.90;;;;;;5074032;28;20421;-52
2021/10/29 09:33:55;;;;;;;29.47;24.20;;;10.30;99.90;;;;;;5073909;28;20441;-53
2021/10/29 09:36:28;;;;;;;26.23;23.47;;;10.60;99.90;;;;;;5073478;28;20453;-53
2021/10/29 09:38:56;;;;;;;31.63;25.13;;;10.40;99.90;;;;;;5072998;28;20464;-53
2021/10/29 09:41:35;;;;;;;30.77;23.93;;;10.10;99.90;;;;;;5071690;28;20545;-53
2021/10/29 09:44:09;;;;;;;31.13;24.00;;;10.50;99.90;;;;;;5071905;28;20537;-53
2021/10/29 09:46:53;;;;;;;30.27;23.10;;;10.50;99.90;;;;;;5053500;28;20447;-53
2021/10/29 09:49:28;;;;;;;31.40;24.03;;;10.40;99.90;;;;;;5052676;28;20512;-54
2021/10/29 09:52:19;;;;;;;30.27;24.80;;;10.70;99.90;;;;;;5053166;28;20486;-52
2021/10/29 09:54:51;;;;;;;28.27;23.97;;;10.60;99.90;;;;;;5052864;28;20455;-52
2021/10/29 09:57:19;;;;;;;27.93;24.03;;;10.40;99.90;;;;;;5051729;28;20790;-52
2021/10/29 09:59:45;;;;;;;30.50;23.90;;;10.50;99.90;;;;;;5052705;28;20440;-53
2021/10/29 10:02:19;;;;;;;34.23;24.93;;;11.10;99.90;;;;;;5051645;28;20488;-53
2021/10/29 10:04:47;;;;;;;27.60;23.27;;;10.70;99.90;;;;;;5051812;28;20515;-53
2021/10/29 10:07:15;;;;;;;31.77;23.87;;;10.90;99.90;;;;;;5053003;28;20500;-51
2021/10/29 10:09:43;;;;;;;29.00;23.43;;;10.60;99.90;;;;;;5052535;28;20431;-53
2021/10/29 10:12:10;;;;;;;26.30;22.70;;;11.10;99.90;;;;;;5070335;28;20500;-51
2021/10/29 10:14:40;;;;;;;28.80;24.70;;;11.10;99.90;;;;;;5072909;28;20448;-51
2021/10/29 10:17:10;;;;;;;29.57;22.87;;;11.00;99.90;;;;;;5073188;28;20518;-51
2021/10/29 10:19:38;;;;;;;32.87;26.87;;;11.20;99.90;;;;;;5058864;28;20447;-51
2021/10/29 10:22:07;;;;;;;30.90;25.77;;;10.80;99.90;;;;;;5052468;28;20494;-51
2021/10/29 10:24:35;;;;;;;28.80;23.93;;;11.10;99.90;;;;;;5052687;28;20829;-51
2021/10/29 10:41:30;;;;;;;27.63;23.70;;;11.40;99.90;;;;;;5052108;28;20908;-53
2021/10/29 10:44:31;;;;;;;28.27;23.10;;;11.80;99.90;;;;;;5051824;28;20648;-53
2021/10/29 10:46:59;;;;;;;26.17;22.13;;;11.90;99.90;;;;;;5050102;28;20851;-53
2021/10/29 10:49:35;;;;;;;33.30;22.50;;;11.60;99.90;;;;;;5050373;28;20431;-53
2021/10/29 10:52:09;;;;;;;25.70;21.67;;;11.60;99.90;;;;;;5051993;28;20459;-53
2021/10/29 10:54:46;;;;;;;27.00;23.00;;;11.70;99.90;;;;;;5050319;28;20454;-52
2021/10/29 10:57:24;;;;;;;26.57;22.27;;;12.10;99.90;;;;;;5051549;28;20860;-53
2021/10/29 11:06:00;;;;;;;28.33;22.43;;;11.80;99.90;;;;;;5051157;28;20553;-51
2021/10/29 11:11:14;;;;;;;25.20;21.90;;;11.70;99.90;;;;;;5060301;28;20442;-52
2021/10/29 11:13:53;;;;;;;24.00;21.37;;;11.90;99.90;;;;;;5071361;28;20576;-52
2021/10/29 11:16:35;;;;;;;24.13;21.53;;;11.70;99.90;;;;;;5071175;28;20444;-50
2021/10/29 11:19:09;;;;;;;27.80;22.20;;;12.00;99.90;;;;;;5062215;28;20487;-53
2021/10/29 11:21:46;;;;;;;28.53;22.63;;;12.10;99.90;;;;;;5051525;28;20448;-51
2021/10/29 11:24:15;;;;;;;28.80;21.60;;;12.10;99.90;;;;;;5051327;28;20452;-51
2021/10/29 11:26:46;;;;;;;28.17;21.60;;;11.60;99.90;;;;;;5051392;28;20505;-52
2021/10/29 11:29:15;;;;;;;29.00;25.40;;;12.50;99.90;;;;;;5051249;28;20440;-51
2021/10/29 11:31:44;;;;;;;24.20;21.57;;;12.60;99.90;;;;;;5050570;28;20512;-51
2021/10/29 11:34:16;;;;;;;26.63;22.03;;;12.30;99.90;;;;;;5050901;28;20492;-52
2021/10/29 11:36:46;;;;;;;24.17;20.83;;;12.30;99.90;;;;;;5051326;28;20440;-51
2021/10/29 11:39:15;;;;;;;28.33;21.10;;;12.40;99.90;;;;;;5050971;28;20585;-51
2021/10/29 11:41:45;;;;;;;24.47;21.60;;;12.30;99.90;;;;;;5051353;28;20495;-51
2021/10/29 11:44:15;;;;;;;26.00;21.53;;;12.40;99.90;;;;;;5050988;28;20439;-53
2021/10/29 11:46:43;;;;;;;25.07;21.10;;;12.40;99.90;;;;;;5071130;28;20506;-53
2021/10/29 11:49:11;;;;;;;22.87;20.37;;;12.40;99.90;;;;;;5070318;28;20439;-51
2021/10/29 11:51:40;;;;;;;26.13;22.23;;;12.60;99.90;;;;;;5070735;28;20436;-51
2021/10/29 11:54:17;;;;;;;28.53;23.90;;;12.40;99.90;;;;;;5068717;28;20874;-51
2021/10/29 11:56:57;;;;;;;26.27;22.20;;;12.20;99.90;;;;;;5070576;28;20533;-52
2021/10/29 12:07:42;;;;;;;29.70;23.30;;;12.50;99.90;;;;;;5068826;28;20515;-51
2021/10/29 12:10:16;;;;;;;28.90;25.87;;;12.60;99.90;;;;;;5071232;28;20965;-51
2021/10/29 12:12:49;;;;;;;29.80;22.83;;;12.60;99.90;;;;;;5070564;28;20471;-51
2021/10/29 12:15:20;;;;;;;28.00;24.90;;;12.30;99.90;;;;;;5070669;28;20463;-51
2021/10/29 12:17:52;;;;;;;27.03;23.83;;;12.60;99.90;;;;;;5069809;28;20924;-52
2021/10/29 12:20:22;;;;;;;27.93;24.53;;;13.10;99.90;;;;;;5050295;28;20515;-52
2021/10/29 12:22:54;;;;;;;26.50;22.10;;;12.40;99.90;;;;;;5050478;28;20458;-51
2021/10/29 12:25:27;;;;;;;26.50;21.73;;;12.30;99.90;;;;;;5050246;28;20457;-51
2021/10/29 12:28:00;;;;;;;26.80;22.80;;;12.70;99.90;;;;;;5050025;28;20654;-52
2021/10/29 12:30:31;;;;;;;27.57;23.20;;;12.20;99.90;;;;;;5052778;28;20443;-51
2021/10/29 12:59:01;;;;;;;26.20;21.20;;;13.10;99.90;;;;;;5068711;28;20884;-52
2021/10/29 13:01:37;;;;;;;24.83;21.70;;;12.70;99.90;;;;;;5069980;28;20445;-52
2021/10/29 13:04:07;;;;;;;27.40;20.83;;;13.10;99.90;;;;;;5070055;28;20502;-53
2021/10/29 13:06:37;;;;;;;28.67;23.87;;;13.10;99.90;;;;;;5070287;28;20513;-53
2021/10/29 13:09:14;;;;;;;27.53;21.50;;;13.10;99.90;;;;;;5069946;28;20535;-53
2021/10/29 13:11:47;;;;;;;29.97;22.40;;;13.10;99.90;;;;;;5070085;28;20826;-53
2021/10/29 13:14:17;;;;;;;28.10;24.37;;;13.30;99.90;;;;;;5070293;28;20503;-53
2021/10/29 13:16:48;;;;;;;25.97;21.93;;;13.10;99.90;;;;;;5070576;28;20879;-53
2021/10/29 13:19:29;;;;;;;25.47;22.67;;;13.10;99.90;;;;;;5067891;28;20501;-53
2021/10/29 13:24:56;;;;;;;26.27;21.70;;;13.20;99.90;;;;;;5070506;28;20842;-52
2021/10/29 13:27:39;;;;;;;27.50;22.63;;;13.40;99.90;;;;;;5070093;28;20429;-52
2021/10/29 13:52:05;;;;;;;20.60;18.43;;;13.10;99.90;;;;;;5072973;28;20863;-53
2021/10/29 13:54:41;;;;;;;19.13;17.23;;;13.10;99.90;;;;;;5073004;28;20506;-52
2021/10/29 13:57:23;;;;;;;20.73;18.60;;;13.10;99.90;;;;;;5073036;28;20464;-51
2021/10/29 14:30:15;;;;;;;21.70;19.27;;;13.20;99.90;;;;;;5072460;28;20431;-50
2021/10/29 14:32:47;;;;;;;23.33;19.47;;;13.10;99.90;;;;;;5071904;28;20441;-51
2021/10/29 14:35:18;;;;;;;23.33;20.90;;;13.10;99.90;;;;;;5071539;28;20873;-52
2021/10/29 14:37:57;;;;;;;22.63;20.30;;;13.20;99.90;;;;;;5070439;28;20926;-52
2021/10/29 14:40:28;;;;;;;24.97;20.73;;;13.10;99.90;;;;;;5070663;28;20506;-52
2021/10/29 14:43:02;;;;;;;30.27;22.07;;;13.30;99.90;;;;;;5072102;28;20555;-52
2021/10/29 14:45:34;;;;;;;21.73;19.53;;;13.10;99.90;;;;;;5071975;28;20828;-51
2021/10/29 14:48:11;;;;;;;24.87;22.00;;;13.10;99.90;;;;;;5071776;28;20513;-51
2021/10/29 15:04:34;;;;;;;23.87;21.27;;;12.60;99.90;;;;;;5071500;28;20510;-52
2021/10/29 15:07:23;;;;;;;24.53;21.93;;;13.20;99.90;;;;;;5060333;28;20437;-52
2021/10/29 15:15:50;;;;;;;22.37;20.13;;;12.90;99.90;;;;;;5061792;28;20478;-53
2021/10/29 15:26:57;;;;;;;28.13;25.00;;;12.80;99.90;;;;;;5070727;28;20524;-51
2021/10/29 15:29:30;;;;;;;28.20;22.27;;;12.80;99.90;;;;;;5069579;28;20534;-51
2021/10/29 15:43:30;;;;;;;27.10;22.20;;;12.30;99.90;;;;;;5044168;28;20448;-51
2021/10/29 15:46:05;;;;;;;24.43;21.83;;;12.50;99.90;;;;;;5051126;28;20453;-52
2021/10/29 15:48:40;;;;;;;29.60;22.73;;;12.50;99.90;;;;;;5057782;28;20451;-54
2021/10/29 15:51:08;;;;;;;38.40;33.93;;;12.70;99.90;;;;;;5060564;28;20444;-52
2021/10/29 15:53:35;;;;;;;27.63;24.73;;;12.40;99.90;;;;;;5050032;28;20478;-52
2021/10/29 15:56:11;;;;;;;26.17;23.47;;;12.90;99.90;;;;;;5065138;28;20462;-52
2021/10/29 15:58:47;;;;;;;25.80;23.03;;;12.40;99.90;;;;;;5069974;28;20556;-52
2021/10/29 16:01:17;;;;;;;29.40;23.87;;;12.50;99.90;;;;;;5069346;28;20524;-53
2021/10/29 16:03:55;;;;;;;26.07;23.23;;;12.30;99.90;;;;;;5062390;28;20451;-53
2021/10/29 16:17:19;;;;;;;29.63;25.97;;;12.20;99.90;;;;;;5050214;28;20488;-54
2021/10/29 16:19:46;;;;;;;27.90;25.10;;;11.80;99.90;;;;;;5049847;28;20436;-50
2021/10/29 16:22:20;;;;;;;27.77;24.77;;;12.10;99.90;;;;;;5057243;28;20451;-51
2021/10/29 16:24:57;;;;;;;28.37;25.27;;;12.20;99.90;;;;;;5050484;28;20530;-51
2021/10/29 16:27:27;;;;;;;32.03;24.83;;;12.00;99.90;;;;;;5049459;28;20428;-53
2021/10/29 16:29:58;;;;;;;29.83;26.67;;;12.30;99.90;;;;;;5050167;28;20433;-53